Terminal Aerodrome Forecast
Issued by NWS Missoula, MT

Home | Current Version | Previous Version | Text Only | Print | Product List | Glossary On
Versions: 1 2 3 4 5 6 7 8 9 10 11 12 13 14 15 16 17 18 19
000
FTUS45 KMSO 271431 AAB
TAFMSO
TAF AMD
KMSO 271431Z 2715/2812 VRB03KT 6SM BR OVC035
     FM271700 13005KT 6SM -SN BR SCT020 OVC030
     FM272200 13004KT 4SM -SN BR SCT010 BKN025
     FM280400 VRB03KT 2SM -SN BR SCT006 OVC015=

USA.gov is the U.S. government's official web portal to all federal, state and local government web resources and services.